sensor_id;sensor_type;location;lat;lon;timestamp;temperature;humidity
11112;DHT22;5609;49.466;8.468;2024-03-23T00:55:47;10.80;99.90
11112;DHT22;5609;49.466;8.468;2024-03-23T00:58:13;10.80;99.90
11112;DHT22;5609;49.466;8.468;2024-03-23T01:00:40;10.90;99.90
11112;DHT22;5609;49.466;8.468;2024-03-23T01:03:06;10.80;99.90
11112;DHT22;5609;49.466;8.468;2024-03-23T01:05:32;10.90;99.90
11112;DHT22;5609;49.466;8.468;2024-03-23T01:07:58;10.90;99.90
11112;DHT22;5609;49.466;8.468;2024-03-23T01:10:25;10.90;99.90
11112;DHT22;5609;49.466;8.468;2024-03-23T01:12:52;11.00;99.90
11112;DHT22;5609;49.466;8.468;2024-03-23T01:15:19;11.00;99.90
11112;DHT22;5609;49.466;8.468;2024-03-23T01:17:44;11.00;99.90
11112;DHT22;5609;49.466;8.468;2024-03-23T01:20:11;11.10;99.90
11112;DHT22;5609;49.466;8.468;2024-03-23T01:22:37;11.10;99.90
11112;DHT22;5609;49.466;8.468;2024-03-23T01:25:05;11.10;99.90
11112;DHT22;5609;49.466;8.468;2024-03-23T01:27:31;11.20;99.90
11112;DHT22;5609;49.466;8.468;2024-03-23T01:29:59;11.20;99.90
11112;DHT22;5609;49.466;8.468;2024-03-23T01:32:25;11.20;99.90
11112;DHT22;5609;49.466;8.468;2024-03-23T01:34:52;11.20;99.90
11112;DHT22;5609;49.466;8.468;2024-03-23T01:37:18;11.30;99.90
11112;DHT22;5609;49.466;8.468;2024-03-23T01:39:44;11.30;99.90
11112;DHT22;5609;49.466;8.468;2024-03-23T01:42:10;11.30;99.90
11112;DHT22;5609;49.466;8.468;2024-03-23T01:44:37;11.40;99.90
11112;DHT22;5609;49.466;8.468;2024-03-23T01:47:06;11.50;99.90
11112;DHT22;5609;49.466;8.468;2024-03-23T01:49:33;11.60;99.90
11112;DHT22;5609;49.466;8.468;2024-03-23T01:51:59;11.60;99.90
11112;DHT22;5609;49.466;8.468;2024-03-23T01:54:26;11.60;99.90
11112;DHT22;5609;49.466;8.468;2024-03-23T01:56:53;11.60;99.90
11112;DHT22;5609;49.466;8.468;2024-03-23T01:59:21;11.60;99.90
11112;DHT22;5609;49.466;8.468;2024-03-23T02:01:46;11.60;99.90
11112;DHT22;5609;49.466;8.468;2024-03-23T02:04:14;11.70;99.90
11112;DHT22;5609;49.466;8.468;2024-03-23T02:06:40;11.70;99.90
11112;DHT22;5609;49.466;8.468;2024-03-23T02:09:09;11.80;99.90
11112;DHT22;5609;49.466;8.468;2024-03-23T02:11:36;11.80;99.90
11112;DHT22;5609;49.466;8.468;2024-03-23T02:14:03;11.80;99.90
11112;DHT22;5609;49.466;8.468;2024-03-23T02:16:28;11.80;99.90
11112;DHT22;5609;49.466;8.468;2024-03-23T02:18:55;11.80;99.90
11112;DHT22;5609;49.466;8.468;2024-03-23T02:21:22;11.80;99.90
11112;DHT22;5609;49.466;8.468;2024-03-23T02:23:50;11.80;99.90
11112;DHT22;5609;49.466;8.468;2024-03-23T02:26:16;11.90;99.90
11112;DHT22;5609;49.466;8.468;2024-03-23T02:28:43;11.90;99.90
11112;DHT22;5609;49.466;8.468;2024-03-23T02:31:09;11.90;99.90
11112;DHT22;5609;49.466;8.468;2024-03-23T02:33:35;11.90;99.90
11112;DHT22;5609;49.466;8.468;2024-03-23T02:36:04;11.90;99.90
11112;DHT22;5609;49.466;8.468;2024-03-23T02:38:30;11.90;99.90
11112;DHT22;5609;49.466;8.468;2024-03-23T02:41:03;11.90;99.90
11112;DHT22;5609;49.466;8.468;2024-03-23T02:43:30;12.00;99.90
11112;DHT22;5609;49.466;8.468;2024-03-23T02:45:56;12.00;99.90
11112;DHT22;5609;49.466;8.468;2024-03-23T02:48:22;12.10;99.90
11112;DHT22;5609;49.466;8.468;2024-03-23T02:50:49;12.10;99.90
11112;DHT22;5609;49.466;8.468;2024-03-23T02:53:15;12.20;99.90
11112;DHT22;5609;49.466;8.468;2024-03-23T02:55:41;12.20;99.90
11112;DHT22;5609;49.466;8.468;2024-03-23T02:58:09;12.20;99.90
11112;DHT22;5609;49.466;8.468;2024-03-23T03:00:35;12.20;99.90
11112;DHT22;5609;49.466;8.468;2024-03-23T03:03:02;12.20;99.90
11112;DHT22;5609;49.466;8.468;2024-03-23T03:05:29;12.20;99.90
11112;DHT22;5609;49.466;8.468;2024-03-23T03:07:56;12.30;99.90
11112;DHT22;5609;49.466;8.468;2024-03-23T03:10:21;12.30;99.90
11112;DHT22;5609;49.466;8.468;2024-03-23T03:12:50;12.30;99.90
11112;DHT22;5609;49.466;8.468;2024-03-23T03:15:17;12.40;99.90
11112;DHT22;5609;49.466;8.468;2024-03-23T03:17:44;12.40;99.90
11112;DHT22;5609;49.466;8.468;2024-03-23T03:20:10;12.40;99.90
11112;DHT22;5609;49.466;8.468;2024-03-23T03:22:40;12.50;99.90
11112;DHT22;5609;49.466;8.468;2024-03-23T03:25:06;12.60;99.90
11112;DHT22;5609;49.466;8.468;2024-03-23T03:27:33;12.60;99.90
11112;DHT22;5609;49.466;8.468;2024-03-23T03:29:59;12.60;99.90
11112;DHT22;5609;49.466;8.468;2024-03-23T03:32:29;12.60;99.90
11112;DHT22;5609;49.466;8.468;2024-03-23T03:34:55;12.60;99.90
11112;DHT22;5609;49.466;8.468;2024-03-23T03:37:22;12.70;99.90
11112;DHT22;5609;49.466;8.468;2024-03-23T03:39:47;12.60;99.90
11112;DHT22;5609;49.466;8.468;2024-03-23T03:42:14;12.60;99.90
11112;DHT22;5609;49.466;8.468;2024-03-23T03:44:41;12.60;99.90
11112;DHT22;5609;49.466;8.468;2024-03-23T03:47:09;12.60;99.90
11112;DHT22;5609;49.466;8.468;2024-03-23T03:49:38;12.60;99.90
11112;DHT22;5609;49.466;8.468;2024-03-23T03:52:05;12.50;99.90
11112;DHT22;5609;49.466;8.468;2024-03-23T03:54:31;12.50;99.90
11112;DHT22;5609;49.466;8.468;2024-03-23T03:56:58;12.50;99.90
11112;DHT22;5609;49.466;8.468;2024-03-23T03:59:24;12.50;99.90
11112;DHT22;5609;49.466;8.468;2024-03-23T04:01:51;12.50;99.90
11112;DHT22;5609;49.466;8.468;2024-03-23T04:04:17;12.60;99.90
11112;DHT22;5609;49.466;8.468;2024-03-23T04:06:46;12.70;99.90
11112;DHT22;5609;49.466;8.468;2024-03-23T04:09:12;12.60;99.90
11112;DHT22;5609;49.466;8.468;2024-03-23T04:11:38;12.70;99.90
11112;DHT22;5609;49.466;8.468;2024-03-23T04:14:04;12.60;99.90
11112;DHT22;5609;49.466;8.468;2024-03-23T04:16:34;12.60;99.90
11112;DHT22;5609;49.466;8.468;2024-03-23T04:19:01;12.70;99.90
11112;DHT22;5609;49.466;8.468;2024-03-23T04:21:28;12.60;99.90
11112;DHT22;5609;49.466;8.468;2024-03-23T04:23:56;12.60;99.90
11112;DHT22;5609;49.466;8.468;2024-03-23T04:26:22;12.60;99.90
11112;DHT22;5609;49.466;8.468;2024-03-23T04:28:48;12.70;99.90
11112;DHT22;5609;49.466;8.468;2024-03-23T04:31:15;12.70;99.90
11112;DHT22;5609;49.466;8.468;2024-03-23T04:33:41;12.60;99.90
11112;DHT22;5609;49.466;8.468;2024-03-23T04:36:07;12.50;99.90
11112;DHT22;5609;49.466;8.468;2024-03-23T04:38:33;12.60;99.90
11112;DHT22;5609;49.466;8.468;2024-03-23T04:41:01;12.50;99.90
11112;DHT22;5609;49.466;8.468;2024-03-23T04:43:28;12.50;99.90
11112;DHT22;5609;49.466;8.468;2024-03-23T04:45:55;12.50;99.90
11112;DHT22;5609;49.466;8.468;2024-03-23T04:48:22;12.50;99.90
11112;DHT22;5609;49.466;8.468;2024-03-23T04:50:49;12.50;99.90
11112;DHT22;5609;49.466;8.468;2024-03-23T04:53:15;12.40;99.90
11112;DHT22;5609;49.466;8.468;2024-03-23T04:55:41;12.50;99.90
11112;DHT22;5609;49.466;8.468;2024-03-23T04:58:11;12.50;99.90
11112;DHT22;5609;49.466;8.468;2024-03-23T05:00:37;12.50;99.90
11112;DHT22;5609;49.466;8.468;2024-03-23T05:03:04;12.40;99.90
11112;DHT22;5609;49.466;8.468;2024-03-23T05:05:30;12.40;99.90
11112;DHT22;5609;49.466;8.468;2024-03-23T05:07:56;12.40;99.90
11112;DHT22;5609;49.466;8.468;2024-03-23T05:10:22;12.30;99.90
11112;DHT22;5609;49.466;8.468;2024-03-23T05:12:50;12.30;99.90
11112;DHT22;5609;49.466;8.468;2024-03-23T05:15:17;12.20;99.90
11112;DHT22;5609;49.466;8.468;2024-03-23T05:17:45;12.10;99.90
11112;DHT22;5609;49.466;8.468;2024-03-23T05:20:11;12.00;99.90
11112;DHT22;5609;49.466;8.468;2024-03-23T05:22:41;12.00;99.90
11112;DHT22;5609;49.466;8.468;2024-03-23T05:25:08;11.70;99.90
11112;DHT22;5609;49.466;8.468;2024-03-23T05:27:35;11.30;99.90
11112;DHT22;5609;49.466;8.468;2024-03-23T05:30:03;10.80;99.90
11112;DHT22;5609;49.466;8.468;2024-03-23T05:32:32;10.40;99.90
11112;DHT22;5609;49.466;8.468;2024-03-23T05:34:58;10.20;99.90
11112;DHT22;5609;49.466;8.468;2024-03-23T05:37:26;10.00;99.90
11112;DHT22;5609;49.466;8.468;2024-03-23T05:39:52;9.80;99.90
11112;DHT22;5609;49.466;8.468;2024-03-23T05:42:19;9.70;99.90
11112;DHT22;5609;49.466;8.468;2024-03-23T05:44:45;9.60;99.90
11112;DHT22;5609;49.466;8.468;2024-03-23T05:47:13;9.50;99.90
11112;DHT22;5609;49.466;8.468;2024-03-23T05:49:42;9.50;99.90
11112;DHT22;5609;49.466;8.468;2024-03-23T05:52:09;9.40;99.90
11112;DHT22;5609;49.466;8.468;2024-03-23T05:54:36;9.40;99.90
11112;DHT22;5609;49.466;8.468;2024-03-23T05:57:02;9.30;99.90
11112;DHT22;5609;49.466;8.468;2024-03-23T05:59:29;9.30;99.90
11112;DHT22;5609;49.466;8.468;2024-03-23T06:01:54;9.30;99.90
11112;DHT22;5609;49.466;8.468;2024-03-23T06:04:22;9.30;99.90
11112;DHT22;5609;49.466;8.468;2024-03-23T06:06:50;9.30;99.90
11112;DHT22;5609;49.466;8.468;2024-03-23T06:09:17;9.30;99.90
11112;DHT22;5609;49.466;8.468;2024-03-23T06:11:45;9.30;99.90
11112;DHT22;5609;49.466;8.468;2024-03-23T06:14:13;9.20;99.90
11112;DHT22;5609;49.466;8.468;2024-03-23T06:16:39;9.30;99.90
11112;DHT22;5609;49.466;8.468;2024-03-23T06:19:06;9.30;99.90
11112;DHT22;5609;49.466;8.468;2024-03-23T06:21:32;9.30;99.90
11112;DHT22;5609;49.466;8.468;2024-03-23T06:24:02;9.30;99.90
11112;DHT22;5609;49.466;8.468;2024-03-23T06:26:27;9.30;99.90
11112;DHT22;5609;49.466;8.468;2024-03-23T06:28:55;9.20;99.90
11112;DHT22;5609;49.466;8.468;2024-03-23T06:31:21;9.20;99.90
11112;DHT22;5609;49.466;8.468;2024-03-23T06:33:48;9.20;99.90
11112;DHT22;5609;49.466;8.468;2024-03-23T06:36:14;9.20;99.90
11112;DHT22;5609;49.466;8.468;2024-03-23T06:38:41;9.20;99.90
11112;DHT22;5609;49.466;8.468;2024-03-23T06:41:09;9.20;99.90
11112;DHT22;5609;49.466;8.468;2024-03-23T06:43:37;9.30;99.90
11112;DHT22;5609;49.466;8.468;2024-03-23T06:46:03;9.20;99.90
11112;DHT22;5609;49.466;8.468;2024-03-23T06:48:30;9.10;99.90
11112;DHT22;5609;49.466;8.468;2024-03-23T06:50:57;9.10;99.90
11112;DHT22;5609;49.466;8.468;2024-03-23T06:53:26;8.90;99.90
11112;DHT22;5609;49.466;8.468;2024-03-23T06:55:54;8.90;99.90
11112;DHT22;5609;49.466;8.468;2024-03-23T06:58:24;9.00;99.90
11112;DHT22;5609;49.466;8.468;2024-03-23T07:00:50;9.20;99.90
11112;DHT22;5609;49.466;8.468;2024-03-23T07:03:17;9.50;99.90
11112;DHT22;5609;49.466;8.468;2024-03-23T07:05:44;9.80;99.90
11112;DHT22;5609;49.466;8.468;2024-03-23T07:08:11;9.80;99.90
11112;DHT22;5609;49.466;8.468;2024-03-23T07:10:39;9.90;99.90
11112;DHT22;5609;49.466;8.468;2024-03-23T07:13:08;9.80;99.90
11112;DHT22;5609;49.466;8.468;2024-03-23T07:15:35;9.90;99.90
11112;DHT22;5609;49.466;8.468;2024-03-23T07:18:02;10.00;99.90
11112;DHT22;5609;49.466;8.468;2024-03-23T07:20:28;10.10;99.90
11112;DHT22;5609;49.466;8.468;2024-03-23T07:22:55;10.10;99.90
11112;DHT22;5609;49.466;8.468;2024-03-23T07:25:21;10.10;99.90
11112;DHT22;5609;49.466;8.468;2024-03-23T07:27:48;10.20;99.90
11112;DHT22;5609;49.466;8.468;2024-03-23T07:30:14;10.60;99.90
11112;DHT22;5609;49.466;8.468;2024-03-23T07:32:44;10.90;99.90
11112;DHT22;5609;49.466;8.468;2024-03-23T07:35:10;10.80;99.90
11112;DHT22;5609;49.466;8.468;2024-03-23T07:37:36;10.70;99.90
11112;DHT22;5609;49.466;8.468;2024-03-23T07:40:03;10.70;99.90
11112;DHT22;5609;49.466;8.468;2024-03-23T07:42:32;10.70;99.90
11112;DHT22;5609;49.466;8.468;2024-03-23T07:44:58;10.40;99.90
11112;DHT22;5609;49.466;8.468;2024-03-23T07:47:24;10.50;99.90
11112;DHT22;5609;49.466;8.468;2024-03-23T07:49:51;10.40;99.90
11112;DHT22;5609;49.466;8.468;2024-03-23T07:52:20;10.10;99.90
11112;DHT22;5609;49.466;8.468;2024-03-23T07:54:47;9.90;99.90
11112;DHT22;5609;49.466;8.468;2024-03-23T07:57:14;10.00;99.90
11112;DHT22;5609;49.466;8.468;2024-03-23T07:59:40;10.20;99.90
11112;DHT22;5609;49.466;8.468;2024-03-23T08:02:14;10.30;99.90
11112;DHT22;5609;49.466;8.468;2024-03-23T08:04:39;10.60;99.90
11112;DHT22;5609;49.466;8.468;2024-03-23T08:07:07;10.40;99.90
11112;DHT22;5609;49.466;8.468;2024-03-23T08:09:33;10.60;99.90
11112;DHT22;5609;49.466;8.468;2024-03-23T08:12:00;10.70;99.90
11112;DHT22;5609;49.466;8.468;2024-03-23T08:14:26;10.60;99.90
11112;DHT22;5609;49.466;8.468;2024-03-23T08:16:54;10.70;99.90
11112;DHT22;5609;49.466;8.468;2024-03-23T08:19:20;11.20;99.90
11112;DHT22;5609;49.466;8.468;2024-03-23T08:21:46;11.40;99.90
11112;DHT22;5609;49.466;8.468;2024-03-23T08:24:13;11.60;99.90
11112;DHT22;5609;49.466;8.468;2024-03-23T08:26:40;11.30;99.90
11112;DHT22;5609;49.466;8.468;2024-03-23T08:29:06;10.90;99.90
11112;DHT22;5609;49.466;8.468;2024-03-23T08:31:33;10.70;99.90
11112;DHT22;5609;49.466;8.468;2024-03-23T08:34:02;10.70;99.90
11112;DHT22;5609;49.466;8.468;2024-03-23T08:36:29;10.70;99.90
11112;DHT22;5609;49.466;8.468;2024-03-23T08:38:56;10.50;99.90
11112;DHT22;5609;49.466;8.468;2024-03-23T08:41:24;10.70;99.90
11112;DHT22;5609;49.466;8.468;2024-03-23T08:43:50;11.10;99.90
11112;DHT22;5609;49.466;8.468;2024-03-23T08:46:17;11.30;99.90
11112;DHT22;5609;49.466;8.468;2024-03-23T08:48:44;11.60;99.90
11112;DHT22;5609;49.466;8.468;2024-03-23T08:51:15;11.70;99.90
11112;DHT22;5609;49.466;8.468;2024-03-23T08:53:42;11.80;99.90
11112;DHT22;5609;49.466;8.468;2024-03-23T08:56:09;11.90;99.90
11112;DHT22;5609;49.466;8.468;2024-03-23T08:58:38;11.90;99.90
11112;DHT22;5609;49.466;8.468;2024-03-23T09:01:06;12.10;99.90
11112;DHT22;5609;49.466;8.468;2024-03-23T09:03:32;12.00;99.90
11112;DHT22;5609;49.466;8.468;2024-03-23T09:06:02;12.10;99.90
11112;DHT22;5609;49.466;8.468;2024-03-23T09:08:27;12.40;99.90
11112;DHT22;5609;49.466;8.468;2024-03-23T09:10:54;12.80;99.90
11112;DHT22;5609;49.466;8.468;2024-03-23T09:13:20;13.10;99.90
11112;DHT22;5609;49.466;8.468;2024-03-23T09:15:49;13.20;99.90
11112;DHT22;5609;49.466;8.468;2024-03-23T09:18:15;13.00;99.90
11112;DHT22;5609;49.466;8.468;2024-03-23T09:20:42;13.00;99.90
11112;DHT22;5609;49.466;8.468;2024-03-23T09:23:08;13.10;99.90
11112;DHT22;5609;49.466;8.468;2024-03-23T09:25:38;13.10;99.90
11112;DHT22;5609;49.466;8.468;2024-03-23T09:28:05;13.00;99.90
11112;DHT22;5609;49.466;8.468;2024-03-23T09:30:34;13.00;99.90
11112;DHT22;5609;49.466;8.468;2024-03-23T09:33:02;12.80;99.90
11112;DHT22;5609;49.466;8.468;2024-03-23T09:35:29;12.70;99.90
11112;DHT22;5609;49.466;8.468;2024-03-23T09:37:55;12.40;99.90
11112;DHT22;5609;49.466;8.468;2024-03-23T09:40:22;12.10;99.90
11112;DHT22;5609;49.466;8.468;2024-03-23T09:42:50;12.30;99.90
11112;DHT22;5609;49.466;8.468;2024-03-23T09:45:19;12.10;99.90
11112;DHT22;5609;49.466;8.468;2024-03-23T09:47:45;12.10;95.30
11112;DHT22;5609;49.466;8.468;2024-03-23T09:50:14;12.00;87.60
11112;DHT22;5609;49.466;8.468;2024-03-23T09:52:40;11.80;99.90
11112;DHT22;5609;49.466;8.468;2024-03-23T09:55:08;12.10;99.90
11112;DHT22;5609;49.466;8.468;2024-03-23T09:57:34;12.40;99.90
11112;DHT22;5609;49.466;8.468;2024-03-23T10:00:00;12.60;99.90
11112;DHT22;5609;49.466;8.468;2024-03-23T10:02:29;12.50;94.20
11112;DHT22;5609;49.466;8.468;2024-03-23T10:04:55;12.80;94.70
11112;DHT22;5609;49.466;8.468;2024-03-23T10:07:26;12.80;92.70
11112;DHT22;5609;49.466;8.468;2024-03-23T10:09:54;12.90;99.90
11112;DHT22;5609;49.466;8.468;2024-03-23T10:12:22;13.20;78.60
11112;DHT22;5609;49.466;8.468;2024-03-23T10:14:49;12.90;43.90
11112;DHT22;5609;49.466;8.468;2024-03-23T10:17:18;12.80;52.70
11112;DHT22;5609;49.466;8.468;2024-03-23T10:19:45;12.90;53.80
11112;DHT22;5609;49.466;8.468;2024-03-23T10:22:14;13.00;62.80
11112;DHT22;5609;49.466;8.468;2024-03-23T10:24:41;13.10;89.70
11112;DHT22;5609;49.466;8.468;2024-03-23T10:27:08;13.20;57.20
11112;DHT22;5609;49.466;8.468;2024-03-23T10:29:34;13.00;45.50
11112;DHT22;5609;49.466;8.468;2024-03-23T10:32:12;13.40;90.70
11112;DHT22;5609;49.466;8.468;2024-03-23T10:34:38;13.30;97.60
11112;DHT22;5609;49.466;8.468;2024-03-23T10:37:06;13.50;48.80
11112;DHT22;5609;49.466;8.468;2024-03-23T10:39:33;13.70;99.90
11112;DHT22;5609;49.466;8.468;2024-03-23T10:42:07;13.50;45.50
11112;DHT22;5609;49.466;8.468;2024-03-23T10:44:34;13.50;43.20
11112;DHT22;5609;49.466;8.468;2024-03-23T10:47:01;13.90;56.50
11112;DHT22;5609;49.466;8.468;2024-03-23T10:49:29;14.60;62.40
11112;DHT22;5609;49.466;8.468;2024-03-23T10:52:00;14.60;9.10
11112;DHT22;5609;49.466;8.468;2024-03-23T10:54:26;14.00;4.80
11112;DHT22;5609;49.466;8.468;2024-03-23T10:57:02;13.30;1.00
11112;DHT22;5609;49.466;8.468;2024-03-23T10:59:31;13.40;4.50
11112;DHT22;5609;49.466;8.468;2024-03-23T11:01:58;13.70;12.00
11112;DHT22;5609;49.466;8.468;2024-03-23T11:04:32;13.90;1.10
11112;DHT22;5609;49.466;8.468;2024-03-23T11:07:00;14.30;8.30
11112;DHT22;5609;49.466;8.468;2024-03-23T11:09:38;14.10;7.00
11112;DHT22;5609;49.466;8.468;2024-03-23T11:12:24;14.10;2.10
11112;DHT22;5609;49.466;8.468;2024-03-23T11:14:54;14.50;23.60
11112;DHT22;5609;49.466;8.468;2024-03-23T11:17:20;14.90;6.60
11112;DHT22;5609;49.466;8.468;2024-03-23T11:19:53;15.00;12.60
11112;DHT22;5609;49.466;8.468;2024-03-23T11:22:38;15.30;6.70
11112;DHT22;5609;49.466;8.468;2024-03-23T11:25:14;15.10;1.00
11112;DHT22;5609;49.466;8.468;2024-03-23T11:27:40;15.20;1.00
11112;DHT22;5609;49.466;8.468;2024-03-23T11:30:16;14.80;1.00
11112;DHT22;5609;49.466;8.468;2024-03-23T11:32:42;14.50;1.00
11112;DHT22;5609;49.466;8.468;2024-03-23T11:35:09;14.30;2.80
11112;DHT22;5609;49.466;8.468;2024-03-23T11:37:39;14.20;31.00
11112;DHT22;5609;49.466;8.468;2024-03-23T11:40:19;13.80;16.00
11112;DHT22;5609;49.466;8.468;2024-03-23T11:42:45;13.40;27.50
11112;DHT22;5609;49.466;8.468;2024-03-23T11:45:13;12.50;70.00
11112;DHT22;5609;49.466;8.468;2024-03-23T11:47:43;11.70;99.90
11112;DHT22;5609;49.466;8.468;2024-03-23T11:50:10;11.10;99.90
11112;DHT22;5609;49.466;8.468;2024-03-23T11:52:36;10.60;99.90
11112;DHT22;5609;49.466;8.468;2024-03-23T11:55:06;10.10;99.90
11112;DHT22;5609;49.466;8.468;2024-03-23T11:57:33;10.10;99.90
11112;DHT22;5609;49.466;8.468;2024-03-23T12:00:22;10.10;99.90
11112;DHT22;5609;49.466;8.468;2024-03-23T12:02:53;10.40;99.90
11112;DHT22;5609;49.466;8.468;2024-03-23T12:05:21;10.70;99.90
11112;DHT22;5609;49.466;8.468;2024-03-23T12:07:48;11.00;99.90
11112;DHT22;5609;49.466;8.468;2024-03-23T12:10:19;11.40;99.90
11112;DHT22;5609;49.466;8.468;2024-03-23T12:12:45;11.60;99.90
11112;DHT22;5609;49.466;8.468;2024-03-23T12:15:15;12.00;99.90
11112;DHT22;5609;49.466;8.468;2024-03-23T12:17:42;12.40;99.90
11112;DHT22;5609;49.466;8.468;2024-03-23T12:20:11;12.40;99.90
11112;DHT22;5609;49.466;8.468;2024-03-23T12:22:36;12.30;99.90
11112;DHT22;5609;49.466;8.468;2024-03-23T12:25:03;12.30;99.90
11112;DHT22;5609;49.466;8.468;2024-03-23T12:27:30;12.20;99.90
11112;DHT22;5609;49.466;8.468;2024-03-23T12:29:57;12.30;99.90
11112;DHT22;5609;49.466;8.468;2024-03-23T12:32:24;11.60;99.90
11112;DHT22;5609;49.466;8.468;2024-03-23T12:34:51;11.50;99.90
11112;DHT22;5609;49.466;8.468;2024-03-23T12:37:19;11.50;99.90
11112;DHT22;5609;49.466;8.468;2024-03-23T12:39:46;11.30;99.90
11112;DHT22;5609;49.466;8.468;2024-03-23T12:42:12;11.90;99.90
11112;DHT22;5609;49.466;8.468;2024-03-23T12:44:40;12.20;99.90
11112;DHT22;5609;49.466;8.468;2024-03-23T12:47:06;12.10;99.90
11112;DHT22;5609;49.466;8.468;2024-03-23T12:49:36;12.00;99.90
11112;DHT22;5609;49.466;8.468;2024-03-23T12:52:02;11.50;99.90
11112;DHT22;5609;49.466;8.468;2024-03-23T12:54:31;11.20;99.90
11112;DHT22;5609;49.466;8.468;2024-03-23T12:56:57;10.90;99.90
11112;DHT22;5609;49.466;8.468;2024-03-23T12:59:25;10.60;99.90
11112;DHT22;5609;49.466;8.468;2024-03-23T13:01:53;9.40;99.90
11112;DHT22;5609;49.466;8.468;2024-03-23T13:04:20;8.70;99.90
11112;DHT22;5609;49.466;8.468;2024-03-23T13:09:13;7.90;99.90
11112;DHT22;5609;49.466;8.468;2024-03-23T13:11:41;7.40;99.90
11112;DHT22;5609;49.466;8.468;2024-03-23T13:14:07;7.60;99.90
11112;DHT22;5609;49.466;8.468;2024-03-23T13:16:33;7.80;99.90
11112;DHT22;5609;49.466;8.468;2024-03-23T13:19:00;8.30;99.90
11112;DHT22;5609;49.466;8.468;2024-03-23T13:21:26;9.20;99.90
11112;DHT22;5609;49.466;8.468;2024-03-23T13:23:53;9.80;99.90
11112;DHT22;5609;49.466;8.468;2024-03-23T13:26:19;10.80;99.90
11112;DHT22;5609;49.466;8.468;2024-03-23T13:28:47;11.40;99.90
11112;DHT22;5609;49.466;8.468;2024-03-23T13:31:13;11.40;99.90
11112;DHT22;5609;49.466;8.468;2024-03-23T13:33:40;11.40;99.90
11112;DHT22;5609;49.466;8.468;2024-03-23T13:36:08;11.50;99.90
11112;DHT22;5609;49.466;8.468;2024-03-23T13:38:34;11.40;99.90
11112;DHT22;5609;49.466;8.468;2024-03-23T13:41:00;11.60;99.90
11112;DHT22;5609;49.466;8.468;2024-03-23T13:43:29;11.70;99.90
11112;DHT22;5609;49.466;8.468;2024-03-23T13:45:58;11.80;99.90
11112;DHT22;5609;49.466;8.468;2024-03-23T13:48:27;11.80;99.90
11112;DHT22;5609;49.466;8.468;2024-03-23T13:50:58;11.40;99.90
11112;DHT22;5609;49.466;8.468;2024-03-23T13:53:25;11.50;99.90
11112;DHT22;5609;49.466;8.468;2024-03-23T13:55:51;11.70;99.90
11112;DHT22;5609;49.466;8.468;2024-03-23T13:58:18;12.30;99.90
11112;DHT22;5609;49.466;8.468;2024-03-23T14:00:45;12.40;99.90
11112;DHT22;5609;49.466;8.468;2024-03-23T14:03:14;12.00;99.90
11112;DHT22;5609;49.466;8.468;2024-03-23T14:05:40;11.70;99.90
11112;DHT22;5609;49.466;8.468;2024-03-23T14:08:08;11.70;99.90
11112;DHT22;5609;49.466;8.468;2024-03-23T14:10:34;11.70;99.90
11112;DHT22;5609;49.466;8.468;2024-03-23T14:13:01;12.20;99.90
11112;DHT22;5609;49.466;8.468;2024-03-23T14:15:27;12.50;99.90
11112;DHT22;5609;49.466;8.468;2024-03-23T14:17:55;12.30;99.90
11112;DHT22;5609;49.466;8.468;2024-03-23T14:20:23;12.10;99.90
11112;DHT22;5609;49.466;8.468;2024-03-23T14:22:51;11.70;99.90
11112;DHT22;5609;49.466;8.468;2024-03-23T14:25:16;11.70;99.90
11112;DHT22;5609;49.466;8.468;2024-03-23T14:27:44;12.80;99.90
11112;DHT22;5609;49.466;8.468;2024-03-23T14:30:11;13.40;99.90
11112;DHT22;5609;49.466;8.468;2024-03-23T14:32:39;13.30;99.90
11112;DHT22;5609;49.466;8.468;2024-03-23T14:35:05;13.60;99.20
11112;DHT22;5609;49.466;8.468;2024-03-23T14:37:34;14.00;99.90
11112;DHT22;5609;49.466;8.468;2024-03-23T14:39:59;15.40;98.70
11112;DHT22;5609;49.466;8.468;2024-03-23T14:42:28;16.20;79.10
11112;DHT22;5609;49.466;8.468;2024-03-23T14:44:53;16.50;86.40
11112;DHT22;5609;49.466;8.468;2024-03-23T14:47:20;17.10;41.80
11112;DHT22;5609;49.466;8.468;2024-03-23T14:49:47;16.20;92.90
11112;DHT22;5609;49.466;8.468;2024-03-23T14:52:15;15.40;59.10
11112;DHT22;5609;49.466;8.468;2024-03-23T14:54:43;14.50;74.60
11112;DHT22;5609;49.466;8.468;2024-03-23T14:57:10;13.80;96.30
11112;DHT22;5609;49.466;8.468;2024-03-23T14:59:36;13.20;94.50
11112;DHT22;5609;49.466;8.468;2024-03-23T15:02:04;13.00;99.50
11112;DHT22;5609;49.466;8.468;2024-03-23T15:04:33;12.70;88.00
11112;DHT22;5609;49.466;8.468;2024-03-23T15:07:00;12.80;96.40
11112;DHT22;5609;49.466;8.468;2024-03-23T15:09:26;12.60;85.00
11112;DHT22;5609;49.466;8.468;2024-03-23T15:11:54;12.40;99.90
11112;DHT22;5609;49.466;8.468;2024-03-23T15:14:20;12.20;99.90
11112;DHT22;5609;49.466;8.468;2024-03-23T15:16:48;12.10;99.90
11112;DHT22;5609;49.466;8.468;2024-03-23T15:19:14;12.20;99.90
11112;DHT22;5609;49.466;8.468;2024-03-23T15:21:42;12.10;99.90
11112;DHT22;5609;49.466;8.468;2024-03-23T15:24:09;12.20;99.90
11112;DHT22;5609;49.466;8.468;2024-03-23T15:26:36;12.00;99.90
11112;DHT22;5609;49.466;8.468;2024-03-23T15:29:05;11.80;99.90
11112;DHT22;5609;49.466;8.468;2024-03-23T15:31:38;11.60;92.20
11112;DHT22;5609;49.466;8.468;2024-03-23T15:34:04;11.30;99.90
11112;DHT22;5609;49.466;8.468;2024-03-23T15:36:35;11.20;94.20
11112;DHT22;5609;49.466;8.468;2024-03-23T15:39:03;11.10;94.70
11112;DHT22;5609;49.466;8.468;2024-03-23T15:41:30;10.80;91.30
11112;DHT22;5609;49.466;8.468;2024-03-23T15:43:56;10.60;94.00
11112;DHT22;5609;49.466;8.468;2024-03-23T15:51:17;10.20;97.70
11112;DHT22;5609;49.466;8.468;2024-03-23T15:53:46;9.00;99.90
11112;DHT22;5609;49.466;8.468;2024-03-23T15:56:12;8.50;99.90
11112;DHT22;5609;49.466;8.468;2024-03-23T15:58:39;8.20;99.90
11112;DHT22;5609;49.466;8.468;2024-03-23T16:01:06;8.10;99.90
11112;DHT22;5609;49.466;8.468;2024-03-23T16:03:36;8.00;99.90
11112;DHT22;5609;49.466;8.468;2024-03-23T16:06:03;8.70;99.90
11112;DHT22;5609;49.466;8.468;2024-03-23T16:08:31;10.30;99.90
11112;DHT22;5609;49.466;8.468;2024-03-23T16:11:03;11.90;99.90
11112;DHT22;5609;49.466;8.468;2024-03-23T16:13:36;13.20;98.90
11112;DHT22;5609;49.466;8.468;2024-03-23T16:16:02;13.30;89.40
11112;DHT22;5609;49.466;8.468;2024-03-23T16:18:33;13.20;85.00
11112;DHT22;5609;49.466;8.468;2024-03-23T16:21:02;12.80;89.20
11112;DHT22;5609;49.466;8.468;2024-03-23T16:23:31;12.00;95.70
11112;DHT22;5609;49.466;8.468;2024-03-23T16:25:57;11.10;97.70
11112;DHT22;5609;49.466;8.468;2024-03-23T16:28:24;10.40;99.90
11112;DHT22;5609;49.466;8.468;2024-03-23T16:30:57;9.70;99.90
11112;DHT22;5609;49.466;8.468;2024-03-23T17:08:06;9.20;99.90
11112;DHT22;5609;49.466;8.468;2024-03-23T17:10:36;7.50;99.90
11112;DHT22;5609;49.466;8.468;2024-03-23T17:13:07;7.40;99.90
11112;DHT22;5609;49.466;8.468;2024-03-23T17:15:41;7.30;99.90
11112;DHT22;5609;49.466;8.468;2024-03-23T17:18:08;7.30;99.90
11112;DHT22;5609;49.466;8.468;2024-03-23T17:20:34;7.30;99.90
11112;DHT22;5609;49.466;8.468;2024-03-23T17:23:01;7.30;99.90
11112;DHT22;5609;49.466;8.468;2024-03-23T17:25:27;7.20;99.90
11112;DHT22;5609;49.466;8.468;2024-03-23T17:27:54;7.20;99.90